sensor_id;sensor_type;location;lat;lon;timestamp;P1;durP1;ratioP1;P2;durP2;ratioP2
3589;SDS011;1809;48.470;9.226;2022-09-27T00:01:42;0.60;;;0.60;;
3589;SDS011;1809;48.470;9.226;2022-09-27T00:04:09;1.10;;;0.53;;
3589;SDS011;1809;48.470;9.226;2022-09-27T00:06:36;0.60;;;0.60;;
3589;SDS011;1809;48.470;9.226;2022-09-27T00:09:01;0.93;;;0.57;;
3589;SDS011;1809;48.470;9.226;2022-09-27T00:11:28;3.53;;;1.37;;
3589;SDS011;1809;48.470;9.226;2022-09-27T00:13:57;0.53;;;0.50;;
3589;SDS011;1809;48.470;9.226;2022-09-27T00:16:23;0.40;;;0.40;;
3589;SDS011;1809;48.470;9.226;2022-09-27T00:18:50;0.70;;;0.40;;
3589;SDS011;1809;48.470;9.226;2022-09-27T00:21:16;0.83;;;0.50;;
3589;SDS011;1809;48.470;9.226;2022-09-27T00:23:41;0.50;;;0.50;;
3589;SDS011;1809;48.470;9.226;2022-09-27T00:26:07;1.53;;;0.50;;
3589;SDS011;1809;48.470;9.226;2022-09-27T00:28:35;0.50;;;0.47;;
3589;SDS011;1809;48.470;9.226;2022-09-27T00:31:01;0.50;;;0.50;;
3589;SDS011;1809;48.470;9.226;2022-09-27T00:33:26;0.70;;;0.40;;
3589;SDS011;1809;48.470;9.226;2022-09-27T00:35:52;1.10;;;0.53;;
3589;SDS011;1809;48.470;9.226;2022-09-27T00:38:18;0.50;;;0.50;;
3589;SDS011;1809;48.470;9.226;2022-09-27T00:40:43;0.53;;;0.53;;
3589;SDS011;1809;48.470;9.226;2022-09-27T00:43:16;0.50;;;0.43;;
3589;SDS011;1809;48.470;9.226;2022-09-27T00:45:46;0.50;;;0.50;;
3589;SDS011;1809;48.470;9.226;2022-09-27T00:48:24;0.50;;;0.50;;
3589;SDS011;1809;48.470;9.226;2022-09-27T00:50:56;0.63;;;0.50;;
3589;SDS011;1809;48.470;9.226;2022-09-27T00:54:08;0.50;;;0.50;;
3589;SDS011;1809;48.470;9.226;2022-09-27T00:56:20;0.50;;;0.40;;
3589;SDS011;1809;48.470;9.226;2022-09-27T00:58:50;0.60;;;0.60;;
3589;SDS011;1809;48.470;9.226;2022-09-27T01:01:19;0.50;;;0.40;;
3589;SDS011;1809;48.470;9.226;2022-09-27T01:03:46;0.80;;;0.60;;
3589;SDS011;1809;48.470;9.226;2022-09-27T01:06:17;0.50;;;0.47;;
3589;SDS011;1809;48.470;9.226;2022-09-27T01:08:44;0.50;;;0.50;;
3589;SDS011;1809;48.470;9.226;2022-09-27T01:16:28;0.50;;;0.50;;
3589;SDS011;1809;48.470;9.226;2022-09-27T01:19:11;0.50;;;0.50;;
3589;SDS011;1809;48.470;9.226;2022-09-27T01:22:12;0.40;;;0.40;;
3589;SDS011;1809;48.470;9.226;2022-09-27T01:32:36;1.00;;;0.50;;
3589;SDS011;1809;48.470;9.226;2022-09-27T01:35:27;0.50;;;0.50;;
3589;SDS011;1809;48.470;9.226;2022-09-27T01:38:04;0.70;;;0.50;;
3589;SDS011;1809;48.470;9.226;2022-09-27T01:43:15;0.70;;;0.50;;
3589;SDS011;1809;48.470;9.226;2022-09-27T01:45:57;0.50;;;0.50;;
3589;SDS011;1809;48.470;9.226;2022-09-27T01:48:30;0.50;;;0.40;;
3589;SDS011;1809;48.470;9.226;2022-09-27T01:53:36;0.40;;;0.40;;
3589;SDS011;1809;48.470;9.226;2022-09-27T01:56:05;0.40;;;0.40;;
3589;SDS011;1809;48.470;9.226;2022-09-27T01:58:37;0.43;;;0.40;;
3589;SDS011;1809;48.470;9.226;2022-09-27T02:01:16;0.40;;;0.40;;
3589;SDS011;1809;48.470;9.226;2022-09-27T02:03:46;0.90;;;0.50;;
3589;SDS011;1809;48.470;9.226;2022-09-27T02:06:24;0.50;;;0.43;;
3589;SDS011;1809;48.470;9.226;2022-09-27T02:09:18;1.73;;;0.50;;
3589;SDS011;1809;48.470;9.226;2022-09-27T02:11:50;0.47;;;0.47;;
3589;SDS011;1809;48.470;9.226;2022-09-27T02:14:53;0.53;;;0.50;;
3589;SDS011;1809;48.470;9.226;2022-09-27T02:17:29;0.50;;;0.50;;
3589;SDS011;1809;48.470;9.226;2022-09-27T02:20:08;0.50;;;0.50;;
3589;SDS011;1809;48.470;9.226;2022-09-27T02:30:28;0.53;;;0.50;;
3589;SDS011;1809;48.470;9.226;2022-09-27T02:32:54;0.70;;;0.50;;
3589;SDS011;1809;48.470;9.226;2022-09-27T02:35:21;0.50;;;0.50;;
3589;SDS011;1809;48.470;9.226;2022-09-27T02:37:58;0.47;;;0.43;;
3589;SDS011;1809;48.470;9.226;2022-09-27T02:40:24;3.13;;;0.60;;
3589;SDS011;1809;48.470;9.226;2022-09-27T02:42:55;4.00;;;0.50;;
3589;SDS011;1809;48.470;9.226;2022-09-27T02:45:21;2.30;;;0.50;;
3589;SDS011;1809;48.470;9.226;2022-09-27T02:53:48;1.37;;;0.60;;
3589;SDS011;1809;48.470;9.226;2022-09-27T02:56:14;3.60;;;0.60;;
3589;SDS011;1809;48.470;9.226;2022-09-27T03:04:16;0.70;;;0.40;;
3589;SDS011;1809;48.470;9.226;2022-09-27T03:06:45;1.67;;;0.60;;
3589;SDS011;1809;48.470;9.226;2022-09-27T03:09:21;1.13;;;0.50;;
3589;SDS011;1809;48.470;9.226;2022-09-27T03:11:49;0.50;;;0.50;;
3589;SDS011;1809;48.470;9.226;2022-09-27T03:14:15;0.50;;;0.50;;
3589;SDS011;1809;48.470;9.226;2022-09-27T03:16:41;0.50;;;0.50;;
3589;SDS011;1809;48.470;9.226;2022-09-27T03:19:07;0.73;;;0.70;;
3589;SDS011;1809;48.470;9.226;2022-09-27T03:21:33;0.93;;;0.50;;
3589;SDS011;1809;48.470;9.226;2022-09-27T03:23:59;0.53;;;0.53;;
3589;SDS011;1809;48.470;9.226;2022-09-27T03:26:24;0.60;;;0.60;;
3589;SDS011;1809;48.470;9.226;2022-09-27T03:28:50;0.50;;;0.50;;
3589;SDS011;1809;48.470;9.226;2022-09-27T03:31:15;0.70;;;0.50;;
3589;SDS011;1809;48.470;9.226;2022-09-27T03:33:40;0.50;;;0.50;;
3589;SDS011;1809;48.470;9.226;2022-09-27T03:36:06;0.60;;;0.60;;
3589;SDS011;1809;48.470;9.226;2022-09-27T03:38:31;1.50;;;0.80;;
3589;SDS011;1809;48.470;9.226;2022-09-27T03:40:57;0.80;;;0.63;;
3589;SDS011;1809;48.470;9.226;2022-09-27T03:43:23;5.50;;;0.90;;
3589;SDS011;1809;48.470;9.226;2022-09-27T03:45:48;0.80;;;0.80;;
3589;SDS011;1809;48.470;9.226;2022-09-27T03:48:14;0.70;;;0.60;;
3589;SDS011;1809;48.470;9.226;2022-09-27T03:50:39;0.80;;;0.70;;
3589;SDS011;1809;48.470;9.226;2022-09-27T03:53:05;0.60;;;0.60;;
3589;SDS011;1809;48.470;9.226;2022-09-27T03:55:30;4.93;;;2.13;;
3589;SDS011;1809;48.470;9.226;2022-09-27T03:57:55;0.80;;;0.80;;
3589;SDS011;1809;48.470;9.226;2022-09-27T04:00:21;2.93;;;0.83;;
3589;SDS011;1809;48.470;9.226;2022-09-27T04:02:46;7.00;;;1.00;;
3589;SDS011;1809;48.470;9.226;2022-09-27T04:05:13;4.17;;;1.00;;
3589;SDS011;1809;48.470;9.226;2022-09-27T04:07:38;2.10;;;0.90;;
3589;SDS011;1809;48.470;9.226;2022-09-27T04:12:39;0.50;;;0.50;;
3589;SDS011;1809;48.470;9.226;2022-09-27T04:15:05;1.13;;;0.70;;
3589;SDS011;1809;48.470;9.226;2022-09-27T04:17:32;1.83;;;0.60;;
3589;SDS011;1809;48.470;9.226;2022-09-27T04:19:58;1.00;;;1.00;;
3589;SDS011;1809;48.470;9.226;2022-09-27T04:22:23;0.97;;;0.80;;
3589;SDS011;1809;48.470;9.226;2022-09-27T04:24:49;2.80;;;1.00;;
3589;SDS011;1809;48.470;9.226;2022-09-27T04:27:14;2.60;;;1.20;;
3589;SDS011;1809;48.470;9.226;2022-09-27T04:29:41;1.63;;;1.00;;
3589;SDS011;1809;48.470;9.226;2022-09-27T04:32:09;0.87;;;0.80;;
3589;SDS011;1809;48.470;9.226;2022-09-27T04:34:35;3.03;;;1.07;;
3589;SDS011;1809;48.470;9.226;2022-09-27T04:37:19;3.03;;;0.80;;
3589;SDS011;1809;48.470;9.226;2022-09-27T04:39:45;1.77;;;1.33;;
3589;SDS011;1809;48.470;9.226;2022-09-27T04:42:10;5.37;;;1.33;;
3589;SDS011;1809;48.470;9.226;2022-09-27T04:44:36;2.90;;;1.60;;
3589;SDS011;1809;48.470;9.226;2022-09-27T04:47:01;5.23;;;1.60;;
3589;SDS011;1809;48.470;9.226;2022-09-27T04:49:26;1.57;;;1.10;;
3589;SDS011;1809;48.470;9.226;2022-09-27T04:51:52;2.80;;;1.40;;
3589;SDS011;1809;48.470;9.226;2022-09-27T04:54:17;7.60;;;2.20;;
3589;SDS011;1809;48.470;9.226;2022-09-27T04:56:42;1.50;;;1.40;;
3589;SDS011;1809;48.470;9.226;2022-09-27T04:59:08;3.03;;;1.60;;
3589;SDS011;1809;48.470;9.226;2022-09-27T05:01:33;4.93;;;1.20;;
3589;SDS011;1809;48.470;9.226;2022-09-27T05:03:59;5.00;;;1.47;;
3589;SDS011;1809;48.470;9.226;2022-09-27T05:06:24;1.63;;;1.30;;
3589;SDS011;1809;48.470;9.226;2022-09-27T05:08:50;4.37;;;1.83;;
3589;SDS011;1809;48.470;9.226;2022-09-27T05:11:15;7.03;;;1.87;;
3589;SDS011;1809;48.470;9.226;2022-09-27T05:13:41;3.60;;;1.00;;
3589;SDS011;1809;48.470;9.226;2022-09-27T05:16:06;5.60;;;1.43;;
3589;SDS011;1809;48.470;9.226;2022-09-27T05:18:32;1.27;;;1.27;;
3589;SDS011;1809;48.470;9.226;2022-09-27T05:20:58;2.50;;;1.33;;
3589;SDS011;1809;48.470;9.226;2022-09-27T05:23:23;1.40;;;1.30;;
3589;SDS011;1809;48.470;9.226;2022-09-27T05:25:49;8.30;;;1.50;;
3589;SDS011;1809;48.470;9.226;2022-09-27T05:28:17;3.63;;;1.67;;
3589;SDS011;1809;48.470;9.226;2022-09-27T05:30:42;5.13;;;1.40;;
3589;SDS011;1809;48.470;9.226;2022-09-27T05:33:08;1.30;;;1.20;;
3589;SDS011;1809;48.470;9.226;2022-09-27T05:35:33;2.07;;;1.07;;
3589;SDS011;1809;48.470;9.226;2022-09-27T05:38:00;1.97;;;1.43;;
3589;SDS011;1809;48.470;9.226;2022-09-27T05:40:26;1.17;;;1.17;;
3589;SDS011;1809;48.470;9.226;2022-09-27T05:42:53;2.00;;;1.30;;
3589;SDS011;1809;48.470;9.226;2022-09-27T05:45:20;2.93;;;1.33;;
3589;SDS011;1809;48.470;9.226;2022-09-27T05:47:53;3.90;;;1.23;;
3589;SDS011;1809;48.470;9.226;2022-09-27T05:50:22;5.97;;;1.10;;
3589;SDS011;1809;48.470;9.226;2022-09-27T05:52:51;5.90;;;1.03;;
3589;SDS011;1809;48.470;9.226;2022-09-27T05:55:17;1.87;;;1.27;;
3589;SDS011;1809;48.470;9.226;2022-09-27T05:57:53;1.13;;;0.80;;
3589;SDS011;1809;48.470;9.226;2022-09-27T06:00:19;1.63;;;0.93;;
3589;SDS011;1809;48.470;9.226;2022-09-27T06:02:51;1.83;;;0.90;;
3589;SDS011;1809;48.470;9.226;2022-09-27T06:05:19;3.30;;;0.90;;
3589;SDS011;1809;48.470;9.226;2022-09-27T06:07:44;1.50;;;1.17;;
3589;SDS011;1809;48.470;9.226;2022-09-27T06:10:10;0.70;;;0.70;;
3589;SDS011;1809;48.470;9.226;2022-09-27T06:12:35;0.90;;;0.90;;
3589;SDS011;1809;48.470;9.226;2022-09-27T06:15:01;0.80;;;0.80;;
3589;SDS011;1809;48.470;9.226;2022-09-27T06:17:26;4.73;;;1.00;;
3589;SDS011;1809;48.470;9.226;2022-09-27T06:19:51;2.40;;;1.07;;
3589;SDS011;1809;48.470;9.226;2022-09-27T06:22:17;6.00;;;0.93;;
3589;SDS011;1809;48.470;9.226;2022-09-27T06:24:42;2.30;;;1.00;;
3589;SDS011;1809;48.470;9.226;2022-09-27T06:27:07;4.77;;;0.87;;
3589;SDS011;1809;48.470;9.226;2022-09-27T06:29:33;1.73;;;1.20;;
3589;SDS011;1809;48.470;9.226;2022-09-27T06:31:59;2.40;;;1.30;;
3589;SDS011;1809;48.470;9.226;2022-09-27T06:34:24;3.40;;;0.90;;
3589;SDS011;1809;48.470;9.226;2022-09-27T06:36:50;0.70;;;0.70;;
3589;SDS011;1809;48.470;9.226;2022-09-27T06:39:15;1.00;;;0.87;;
3589;SDS011;1809;48.470;9.226;2022-09-27T06:41:40;1.73;;;1.63;;
3589;SDS011;1809;48.470;9.226;2022-09-27T06:44:06;1.43;;;1.00;;
3589;SDS011;1809;48.470;9.226;2022-09-27T06:46:31;2.50;;;0.73;;
3589;SDS011;1809;48.470;9.226;2022-09-27T06:48:57;1.50;;;1.40;;
3589;SDS011;1809;48.470;9.226;2022-09-27T06:51:22;1.90;;;1.07;;
3589;SDS011;1809;48.470;9.226;2022-09-27T06:53:47;2.50;;;0.90;;
3589;SDS011;1809;48.470;9.226;2022-09-27T06:56:13;0.80;;;0.80;;
3589;SDS011;1809;48.470;9.226;2022-09-27T06:58:38;0.70;;;0.70;;
3589;SDS011;1809;48.470;9.226;2022-09-27T07:01:26;1.23;;;1.23;;
3589;SDS011;1809;48.470;9.226;2022-09-27T07:03:52;0.80;;;0.80;;
3589;SDS011;1809;48.470;9.226;2022-09-27T07:06:18;1.23;;;0.90;;
3589;SDS011;1809;48.470;9.226;2022-09-27T07:08:52;1.00;;;0.87;;
3589;SDS011;1809;48.470;9.226;2022-09-27T07:11:18;0.90;;;0.70;;
3589;SDS011;1809;48.470;9.226;2022-09-27T07:13:44;0.70;;;0.70;;
3589;SDS011;1809;48.470;9.226;2022-09-27T07:16:10;0.73;;;0.73;;
3589;SDS011;1809;48.470;9.226;2022-09-27T07:18:37;2.20;;;0.60;;
3589;SDS011;1809;48.470;9.226;2022-09-27T07:21:03;0.60;;;0.60;;
3589;SDS011;1809;48.470;9.226;2022-09-27T07:23:28;1.00;;;0.80;;
3589;SDS011;1809;48.470;9.226;2022-09-27T07:25:54;2.80;;;0.80;;
3589;SDS011;1809;48.470;9.226;2022-09-27T07:28:19;1.40;;;0.80;;
3589;SDS011;1809;48.470;9.226;2022-09-27T07:30:45;0.60;;;0.60;;
3589;SDS011;1809;48.470;9.226;2022-09-27T07:33:11;10.70;;;0.60;;
3589;SDS011;1809;48.470;9.226;2022-09-27T07:35:40;0.90;;;0.80;;
3589;SDS011;1809;48.470;9.226;2022-09-27T07:38:08;1.37;;;0.70;;
3589;SDS011;1809;48.470;9.226;2022-09-27T07:40:37;2.10;;;1.07;;
3589;SDS011;1809;48.470;9.226;2022-09-27T07:43:03;0.70;;;0.70;;
3589;SDS011;1809;48.470;9.226;2022-09-27T07:45:29;2.43;;;0.60;;
3589;SDS011;1809;48.470;9.226;2022-09-27T07:47:55;1.40;;;0.63;;
3589;SDS011;1809;48.470;9.226;2022-09-27T07:50:20;2.87;;;0.70;;
3589;SDS011;1809;48.470;9.226;2022-09-27T07:52:46;2.23;;;0.53;;
3589;SDS011;1809;48.470;9.226;2022-09-27T07:55:15;1.07;;;0.70;;
3589;SDS011;1809;48.470;9.226;2022-09-27T07:57:41;0.70;;;0.70;;
3589;SDS011;1809;48.470;9.226;2022-09-27T08:00:10;1.63;;;0.80;;
3589;SDS011;1809;48.470;9.226;2022-09-27T08:02:37;0.70;;;0.70;;
3589;SDS011;1809;48.470;9.226;2022-09-27T08:05:03;0.63;;;0.60;;
3589;SDS011;1809;48.470;9.226;2022-09-27T08:07:29;0.63;;;0.63;;
3589;SDS011;1809;48.470;9.226;2022-09-27T08:09:56;0.60;;;0.60;;
3589;SDS011;1809;48.470;9.226;2022-09-27T08:12:21;1.33;;;0.60;;
3589;SDS011;1809;48.470;9.226;2022-09-27T08:14:47;0.60;;;0.60;;
3589;SDS011;1809;48.470;9.226;2022-09-27T08:17:13;0.50;;;0.50;;
3589;SDS011;1809;48.470;9.226;2022-09-27T08:19:39;7.10;;;0.60;;
3589;SDS011;1809;48.470;9.226;2022-09-27T08:22:05;0.60;;;0.60;;
3589;SDS011;1809;48.470;9.226;2022-09-27T08:24:34;0.60;;;0.60;;
3589;SDS011;1809;48.470;9.226;2022-09-27T08:26:59;1.43;;;0.60;;
3589;SDS011;1809;48.470;9.226;2022-09-27T08:29:26;0.70;;;0.70;;
3589;SDS011;1809;48.470;9.226;2022-09-27T08:31:52;1.53;;;0.80;;
3589;SDS011;1809;48.470;9.226;2022-09-27T08:34:18;1.20;;;0.60;;
3589;SDS011;1809;48.470;9.226;2022-09-27T08:36:44;0.60;;;0.60;;
3589;SDS011;1809;48.470;9.226;2022-09-27T08:39:09;0.63;;;0.63;;
3589;SDS011;1809;48.470;9.226;2022-09-27T08:41:40;1.03;;;0.73;;
3589;SDS011;1809;48.470;9.226;2022-09-27T08:52:11;1.27;;;1.27;;
3589;SDS011;1809;48.470;9.226;2022-09-27T08:54:43;1.43;;;1.00;;
3589;SDS011;1809;48.470;9.226;2022-09-27T08:57:10;0.97;;;0.97;;
3589;SDS011;1809;48.470;9.226;2022-09-27T08:59:41;0.93;;;0.90;;
3589;SDS011;1809;48.470;9.226;2022-09-27T09:02:13;1.00;;;1.00;;
3589;SDS011;1809;48.470;9.226;2022-09-27T09:04:43;0.83;;;0.83;;
3589;SDS011;1809;48.470;9.226;2022-09-27T09:09:41;0.90;;;0.80;;
3589;SDS011;1809;48.470;9.226;2022-09-27T09:29:04;1.00;;;1.00;;
3589;SDS011;1809;48.470;9.226;2022-09-27T09:31:57;4.13;;;2.07;;
3589;SDS011;1809;48.470;9.226;2022-09-27T09:34:33;1.57;;;1.30;;
3589;SDS011;1809;48.470;9.226;2022-09-27T09:39:50;5.17;;;1.60;;
3589;SDS011;1809;48.470;9.226;2022-09-27T09:42:32;2.10;;;2.00;;
3589;SDS011;1809;48.470;9.226;2022-09-27T09:45:13;2.17;;;2.07;;
3589;SDS011;1809;48.470;9.226;2022-09-27T09:48:02;1.23;;;1.23;;
3589;SDS011;1809;48.470;9.226;2022-09-27T09:50:47;0.93;;;0.93;;
3589;SDS011;1809;48.470;9.226;2022-09-27T09:55:51;2.10;;;1.10;;
3589;SDS011;1809;48.470;9.226;2022-09-27T09:58:27;1.20;;;1.10;;
3589;SDS011;1809;48.470;9.226;2022-09-27T10:00:59;1.30;;;1.20;;
3589;SDS011;1809;48.470;9.226;2022-09-27T10:03:37;2.50;;;1.47;;
3589;SDS011;1809;48.470;9.226;2022-09-27T10:06:03;1.67;;;1.57;;
3589;SDS011;1809;48.470;9.226;2022-09-27T10:08:28;2.33;;;2.10;;
3589;SDS011;1809;48.470;9.226;2022-09-27T10:10:53;6.43;;;2.80;;
3589;SDS011;1809;48.470;9.226;2022-09-27T10:13:20;2.97;;;2.70;;
3589;SDS011;1809;48.470;9.226;2022-09-27T10:15:48;2.90;;;2.70;;
3589;SDS011;1809;48.470;9.226;2022-09-27T10:18:23;3.23;;;2.40;;
3589;SDS011;1809;48.470;9.226;2022-09-27T10:20:51;2.07;;;1.93;;
3589;SDS011;1809;48.470;9.226;2022-09-27T10:23:21;2.53;;;2.30;;
3589;SDS011;1809;48.470;9.226;2022-09-27T10:25:53;3.13;;;1.70;;
3589;SDS011;1809;48.470;9.226;2022-09-27T10:31:10;1.57;;;1.47;;
3589;SDS011;1809;48.470;9.226;2022-09-27T10:33:39;2.10;;;1.40;;
3589;SDS011;1809;48.470;9.226;2022-09-27T10:36:24;2.53;;;2.30;;
3589;SDS011;1809;48.470;9.226;2022-09-27T10:38:55;2.07;;;1.70;;
3589;SDS011;1809;48.470;9.226;2022-09-27T10:46:40;3.93;;;2.17;;
3589;SDS011;1809;48.470;9.226;2022-09-27T10:49:17;4.70;;;2.07;;
3589;SDS011;1809;48.470;9.226;2022-09-27T10:51:44;3.70;;;3.40;;
3589;SDS011;1809;48.470;9.226;2022-09-27T10:54:23;3.73;;;1.97;;
3589;SDS011;1809;48.470;9.226;2022-09-27T10:59:39;2.77;;;1.60;;
3589;SDS011;1809;48.470;9.226;2022-09-27T11:02:20;1.93;;;1.40;;
3589;SDS011;1809;48.470;9.226;2022-09-27T11:07:55;1.83;;;1.10;;
3589;SDS011;1809;48.470;9.226;2022-09-27T11:10:29;1.17;;;0.93;;
3589;SDS011;1809;48.470;9.226;2022-09-27T11:13:12;5.30;;;1.07;;
3589;SDS011;1809;48.470;9.226;2022-09-27T11:18:14;5.10;;;1.10;;
3589;SDS011;1809;48.470;9.226;2022-09-27T11:20:47;1.47;;;0.77;;
3589;SDS011;1809;48.470;9.226;2022-09-27T11:26:19;0.90;;;0.90;;
3589;SDS011;1809;48.470;9.226;2022-09-27T11:29:09;4.17;;;1.00;;
3589;SDS011;1809;48.470;9.226;2022-09-27T11:32:06;0.83;;;0.80;;
3589;SDS011;1809;48.470;9.226;2022-09-27T11:40:06;1.43;;;0.80;;
3589;SDS011;1809;48.470;9.226;2022-09-27T11:42:43;1.70;;;1.40;;
3589;SDS011;1809;48.470;9.226;2022-09-27T11:48:20;1.63;;;1.10;;
3589;SDS011;1809;48.470;9.226;2022-09-27T12:04:47;4.20;;;0.90;;
3589;SDS011;1809;48.470;9.226;2022-09-27T12:10:04;0.73;;;0.70;;
3589;SDS011;1809;48.470;9.226;2022-09-27T12:12:36;0.73;;;0.70;;
3589;SDS011;1809;48.470;9.226;2022-09-27T12:15:05;0.67;;;0.67;;
3589;SDS011;1809;48.470;9.226;2022-09-27T12:17:40;1.00;;;0.70;;
3589;SDS011;1809;48.470;9.226;2022-09-27T12:20:30;0.93;;;0.60;;
3589;SDS011;1809;48.470;9.226;2022-09-27T12:23:00;1.67;;;0.77;;
3589;SDS011;1809;48.470;9.226;2022-09-27T12:25:36;1.00;;;0.77;;
3589;SDS011;1809;48.470;9.226;2022-09-27T12:28:13;0.97;;;0.87;;
3589;SDS011;1809;48.470;9.226;2022-09-27T12:30:47;0.70;;;0.70;;
3589;SDS011;1809;48.470;9.226;2022-09-27T12:33:33;1.07;;;0.90;;
3589;SDS011;1809;48.470;9.226;2022-09-27T12:36:06;0.80;;;0.80;;
3589;SDS011;1809;48.470;9.226;2022-09-27T12:38:39;1.17;;;0.97;;
3589;SDS011;1809;48.470;9.226;2022-09-27T12:41:09;4.30;;;0.87;;
3589;SDS011;1809;48.470;9.226;2022-09-27T12:43:36;2.10;;;1.00;;
3589;SDS011;1809;48.470;9.226;2022-09-27T12:49:09;0.80;;;0.80;;
3589;SDS011;1809;48.470;9.226;2022-09-27T12:51:42;6.00;;;0.90;;
3589;SDS011;1809;48.470;9.226;2022-09-27T12:54:28;0.80;;;0.80;;
3589;SDS011;1809;48.470;9.226;2022-09-27T12:57:26;1.43;;;0.83;;
3589;SDS011;1809;48.470;9.226;2022-09-27T13:02:51;0.90;;;0.90;;
3589;SDS011;1809;48.470;9.226;2022-09-27T13:13:28;0.90;;;0.80;;
3589;SDS011;1809;48.470;9.226;2022-09-27T13:15:56;2.13;;;1.27;;
3589;SDS011;1809;48.470;9.226;2022-09-27T13:21:52;5.20;;;1.30;;
3589;SDS011;1809;48.470;9.226;2022-09-27T13:32:40;0.80;;;0.63;;
3589;SDS011;1809;48.470;9.226;2022-09-27T13:35:34;2.50;;;0.60;;
3589;SDS011;1809;48.470;9.226;2022-09-27T13:38:00;1.00;;;0.50;;
3589;SDS011;1809;48.470;9.226;2022-09-27T13:40:28;1.30;;;0.50;;
3589;SDS011;1809;48.470;9.226;2022-09-27T13:45:26;0.53;;;0.53;;
3589;SDS011;1809;48.470;9.226;2022-09-27T13:47:58;0.50;;;0.50;;
3589;SDS011;1809;48.470;9.226;2022-09-27T13:55:47;0.70;;;0.50;;
3589;SDS011;1809;48.470;9.226;2022-09-27T13:58:14;0.50;;;0.50;;
3589;SDS011;1809;48.470;9.226;2022-09-27T14:00:51;0.60;;;0.47;;
3589;SDS011;1809;48.470;9.226;2022-09-27T14:06:33;1.93;;;0.50;;
3589;SDS011;1809;48.470;9.226;2022-09-27T14:09:05;0.87;;;0.63;;
3589;SDS011;1809;48.470;9.226;2022-09-27T14:11:39;0.77;;;0.73;;
3589;SDS011;1809;48.470;9.226;2022-09-27T14:14:12;2.77;;;0.80;;
3589;SDS011;1809;48.470;9.226;2022-09-27T14:16:42;0.50;;;0.50;;
3589;SDS011;1809;48.470;9.226;2022-09-27T14:19:13;2.60;;;0.60;;
3589;SDS011;1809;48.470;9.226;2022-09-27T14:21:41;1.30;;;1.00;;
3589;SDS011;1809;48.470;9.226;2022-09-27T14:24:27;0.70;;;0.70;;
3589;SDS011;1809;48.470;9.226;2022-09-27T14:27:03;0.70;;;0.70;;
3589;SDS011;1809;48.470;9.226;2022-09-27T14:32:27;0.83;;;0.70;;
3589;SDS011;1809;48.470;9.226;2022-09-27T14:35:14;0.70;;;0.70;;
3589;SDS011;1809;48.470;9.226;2022-09-27T14:38:04;1.70;;;0.60;;
3589;SDS011;1809;48.470;9.226;2022-09-27T14:40:39;0.60;;;0.60;;
3589;SDS011;1809;48.470;9.226;2022-09-27T14:43:17;1.00;;;1.00;;
3589;SDS011;1809;48.470;9.226;2022-09-27T14:45:44;0.60;;;0.60;;
3589;SDS011;1809;48.470;9.226;2022-09-27T14:50:52;0.70;;;0.60;;
3589;SDS011;1809;48.470;9.226;2022-09-27T14:53:22;0.70;;;0.60;;
3589;SDS011;1809;48.470;9.226;2022-09-27T14:55:48;1.57;;;0.80;;
3589;SDS011;1809;48.470;9.226;2022-09-27T14:58:14;1.00;;;0.80;;
3589;SDS011;1809;48.470;9.226;2022-09-27T15:00:44;0.63;;;0.63;;
3589;SDS011;1809;48.470;9.226;2022-09-27T15:03:11;0.97;;;0.97;;
3589;SDS011;1809;48.470;9.226;2022-09-27T15:05:44;0.90;;;0.90;;
3589;SDS011;1809;48.470;9.226;2022-09-27T15:08:10;1.20;;;1.10;;
3589;SDS011;1809;48.470;9.226;2022-09-27T15:10:39;1.67;;;1.23;;
3589;SDS011;1809;48.470;9.226;2022-09-27T15:13:05;0.90;;;0.90;;
3589;SDS011;1809;48.470;9.226;2022-09-27T15:15:32;0.90;;;0.90;;
3589;SDS011;1809;48.470;9.226;2022-09-27T15:17:59;0.90;;;0.90;;
3589;SDS011;1809;48.470;9.226;2022-09-27T15:20:26;0.90;;;0.90;;
3589;SDS011;1809;48.470;9.226;2022-09-27T15:22:57;1.53;;;0.90;;
3589;SDS011;1809;48.470;9.226;2022-09-27T15:25:25;0.70;;;0.70;;
3589;SDS011;1809;48.470;9.226;2022-09-27T15:33:06;1.07;;;0.70;;
3589;SDS011;1809;48.470;9.226;2022-09-27T15:35:46;0.60;;;0.60;;
3589;SDS011;1809;48.470;9.226;2022-09-27T15:38:30;1.00;;;1.00;;
3589;SDS011;1809;48.470;9.226;2022-09-27T15:40:58;0.70;;;0.70;;
3589;SDS011;1809;48.470;9.226;2022-09-27T15:43:27;1.03;;;0.80;;
3589;SDS011;1809;48.470;9.226;2022-09-27T15:45:54;1.80;;;0.90;;
3589;SDS011;1809;48.470;9.226;2022-09-27T15:48:21;4.10;;;1.00;;
3589;SDS011;1809;48.470;9.226;2022-09-27T15:50:47;0.70;;;0.70;;
3589;SDS011;1809;48.470;9.226;2022-09-27T15:55:56;0.70;;;0.70;;
3589;SDS011;1809;48.470;9.226;2022-09-27T15:58:22;0.93;;;0.70;;
3589;SDS011;1809;48.470;9.226;2022-09-27T16:00:52;0.77;;;0.77;;
3589;SDS011;1809;48.470;9.226;2022-09-27T16:03:19;2.13;;;0.80;;
3589;SDS011;1809;48.470;9.226;2022-09-27T16:05:45;1.20;;;1.00;;
3589;SDS011;1809;48.470;9.226;2022-09-27T16:08:11;2.50;;;1.13;;
3589;SDS011;1809;48.470;9.226;2022-09-27T16:10:37;1.50;;;1.00;;
3589;SDS011;1809;48.470;9.226;2022-09-27T16:13:04;1.37;;;0.90;;
3589;SDS011;1809;48.470;9.226;2022-09-27T16:15:30;1.07;;;1.00;;
3589;SDS011;1809;48.470;9.226;2022-09-27T16:17:55;1.30;;;0.97;;
3589;SDS011;1809;48.470;9.226;2022-09-27T16:20:23;1.80;;;1.70;;
3589;SDS011;1809;48.470;9.226;2022-09-27T16:22:54;2.90;;;2.53;;
3589;SDS011;1809;48.470;9.226;2022-09-27T16:25:20;2.70;;;1.33;;
3589;SDS011;1809;48.470;9.226;2022-09-27T16:27:47;1.33;;;1.23;;
3589;SDS011;1809;48.470;9.226;2022-09-27T16:30:13;1.77;;;1.63;;
3589;SDS011;1809;48.470;9.226;2022-09-27T16:32:43;2.70;;;1.37;;
3589;SDS011;1809;48.470;9.226;2022-09-27T16:35:10;4.97;;;1.40;;
3589;SDS011;1809;48.470;9.226;2022-09-27T16:37:36;1.43;;;1.30;;
3589;SDS011;1809;48.470;9.226;2022-09-27T16:40:02;3.67;;;2.03;;
3589;SDS011;1809;48.470;9.226;2022-09-27T16:42:29;1.80;;;1.70;;
3589;SDS011;1809;48.470;9.226;2022-09-27T16:44:54;2.03;;;1.90;;
3589;SDS011;1809;48.470;9.226;2022-09-27T16:47:20;1.50;;;1.40;;
3589;SDS011;1809;48.470;9.226;2022-09-27T16:49:45;4.53;;;1.70;;
3589;SDS011;1809;48.470;9.226;2022-09-27T16:52:29;2.80;;;1.90;;
3589;SDS011;1809;48.470;9.226;2022-09-27T16:54:57;6.10;;;2.37;;
3589;SDS011;1809;48.470;9.226;2022-09-27T16:57:23;1.20;;;1.10;;
3589;SDS011;1809;48.470;9.226;2022-09-27T16:59:49;2.50;;;1.20;;
3589;SDS011;1809;48.470;9.226;2022-09-27T17:02:14;4.60;;;1.30;;
3589;SDS011;1809;48.470;9.226;2022-09-27T17:04:39;2.00;;;1.40;;
3589;SDS011;1809;48.470;9.226;2022-09-27T17:07:05;1.00;;;1.00;;
3589;SDS011;1809;48.470;9.226;2022-09-27T17:09:30;1.20;;;1.10;;
3589;SDS011;1809;48.470;9.226;2022-09-27T17:11:56;1.10;;;1.10;;
3589;SDS011;1809;48.470;9.226;2022-09-27T17:14:21;0.97;;;0.93;;
3589;SDS011;1809;48.470;9.226;2022-09-27T17:16:47;0.93;;;0.83;;
3589;SDS011;1809;48.470;9.226;2022-09-27T17:19:14;1.80;;;1.37;;
3589;SDS011;1809;48.470;9.226;2022-09-27T17:21:41;2.13;;;1.93;;
3589;SDS011;1809;48.470;9.226;2022-09-27T17:24:07;1.53;;;1.43;;
3589;SDS011;1809;48.470;9.226;2022-09-27T17:26:33;1.60;;;1.50;;
3589;SDS011;1809;48.470;9.226;2022-09-27T17:28:59;1.53;;;1.27;;
3589;SDS011;1809;48.470;9.226;2022-09-27T17:31:25;3.83;;;2.00;;
3589;SDS011;1809;48.470;9.226;2022-09-27T17:33:53;4.27;;;2.20;;
3589;SDS011;1809;48.470;9.226;2022-09-27T17:36:20;2.90;;;2.20;;
3589;SDS011;1809;48.470;9.226;2022-09-27T17:38:48;1.83;;;1.73;;
3589;SDS011;1809;48.470;9.226;2022-09-27T17:41:15;6.13;;;2.50;;
3589;SDS011;1809;48.470;9.226;2022-09-27T17:43:43;2.40;;;2.07;;
3589;SDS011;1809;48.470;9.226;2022-09-27T17:46:25;7.33;;;3.30;;
3589;SDS011;1809;48.470;9.226;2022-09-27T17:48:52;5.10;;;2.60;;
3589;SDS011;1809;48.470;9.226;2022-09-27T17:51:37;3.40;;;2.40;;
3589;SDS011;1809;48.470;9.226;2022-09-27T17:54:04;3.80;;;3.40;;
3589;SDS011;1809;48.470;9.226;2022-09-27T17:56:31;7.23;;;3.70;;
3589;SDS011;1809;48.470;9.226;2022-09-27T17:58:57;5.17;;;3.83;;
3589;SDS011;1809;48.470;9.226;2022-09-27T18:01:25;4.70;;;2.50;;
3589;SDS011;1809;48.470;9.226;2022-09-27T18:03:51;3.97;;;3.67;;
3589;SDS011;1809;48.470;9.226;2022-09-27T18:06:18;7.97;;;2.70;;
3589;SDS011;1809;48.470;9.226;2022-09-27T18:08:44;3.20;;;2.87;;
3589;SDS011;1809;48.470;9.226;2022-09-27T18:11:13;4.50;;;3.20;;
3589;SDS011;1809;48.470;9.226;2022-09-27T18:13:40;3.07;;;2.87;;
3589;SDS011;1809;48.470;9.226;2022-09-27T18:18:33;3.20;;;2.90;;
3589;SDS011;1809;48.470;9.226;2022-09-27T18:21:02;4.03;;;3.30;;